createdAt,value
2023-04-18T00:02:02.487Z,5.47
2023-04-18T00:07:05.200Z,6.10
2023-04-18T00:12:08.060Z,5.17
2023-04-18T00:17:10.915Z,5.03
2023-04-18T00:22:14.359Z,5.70
2023-04-18T00:27:20.827Z,6.28
2023-04-18T00:32:23.489Z,5.90
2023-04-18T00:37:27.338Z,4.83
2023-04-18T00:42:30.163Z,4.70
2023-04-18T00:47:32.959Z,6.73
2023-04-18T00:52:36.314Z,5.63
2023-04-18T00:57:39.351Z,4.28
2023-04-18T01:02:42.383Z,4.53
2023-04-18T01:07:45.767Z,6.03
2023-04-18T01:12:48.520Z,4.73
2023-04-18T01:17:52.543Z,5.90
2023-04-18T01:22:57.697Z,5.32
2023-04-18T01:28:00.800Z,5.23
2023-04-18T01:33:05.353Z,4.20
2023-04-18T01:38:08.232Z,1.47
2023-04-18T01:43:11.299Z,4.40
2023-04-18T01:48:13.999Z,4.38
2023-04-18T01:53:18.199Z,4.70
2023-04-18T01:58:23.939Z,4.00
2023-04-18T02:03:26.805Z,4.87
2023-04-18T02:08:31.105Z,5.00
2023-04-18T02:13:33.800Z,5.18
2023-04-18T02:18:37.331Z,5.40
2023-04-18T02:23:40.063Z,3.92
2023-04-18T02:28:42.757Z,4.67
2023-04-18T02:33:50.117Z,3.90
2023-04-18T02:38:53.032Z,5.10
2023-04-18T02:43:56.526Z,5.23
2023-04-18T02:49:00.470Z,4.55
2023-04-18T02:54:03.135Z,5.17
2023-04-18T02:59:16.137Z,5.43
2023-04-18T03:04:54.041Z,4.38
2023-04-18T03:09:57.157Z,3.00
2023-04-18T03:15:05.971Z,4.97
2023-04-18T03:20:10.764Z,4.27
2023-04-18T03:25:13.488Z,6.63
2023-04-18T03:30:21.200Z,7.80
2023-04-18T03:35:31.524Z,7.03
2023-04-18T03:40:34.854Z,6.32
2023-04-18T03:45:44.617Z,6.77
2023-04-18T03:50:47.454Z,2.25
2023-04-18T03:55:51.316Z,7.85
2023-04-18T04:00:56.972Z,6.97
2023-04-18T04:05:59.924Z,6.68
2023-04-18T04:11:02.911Z,6.77
2023-04-18T04:16:06.483Z,3.17
2023-04-18T04:21:09.473Z,7.63
2023-04-18T04:26:23.372Z,6.90
2023-04-18T04:31:37.241Z,7.35
2023-04-18T04:36:41.482Z,7.10
2023-04-18T04:41:47.431Z,6.95
2023-04-18T04:46:52.777Z,7.95
2023-04-18T04:52:01.446Z,7.30
2023-04-18T04:57:05.621Z,6.60
2023-04-18T05:02:08.807Z,7.63
2023-04-18T05:07:12.344Z,7.00
2023-04-18T05:12:15.203Z,5.78
2023-04-18T05:17:17.962Z,7.10
2023-04-18T05:22:20.951Z,7.05
2023-04-18T05:27:23.866Z,6.43
2023-04-18T05:32:26.684Z,7.50
2023-04-18T05:37:29.515Z,6.82
2023-04-18T05:42:32.215Z,8.07
2023-04-18T05:47:34.899Z,7.72
2023-04-18T05:52:39.273Z,7.80
2023-04-18T05:57:42.145Z,7.03
2023-04-18T06:02:44.953Z,6.28
2023-04-18T06:07:48.708Z,8.00
2023-04-18T06:12:51.561Z,8.05
2023-04-18T06:17:54.495Z,7.47
2023-04-18T06:22:57.497Z,8.07
2023-04-18T06:28:00.623Z,7.88
2023-04-18T06:33:03.726Z,3.70
2023-04-18T06:38:06.622Z,7.88
2023-04-18T06:43:09.481Z,8.00
2023-04-18T06:48:12.344Z,6.18
2023-04-18T06:53:15.452Z,7.93
2023-04-18T06:58:18.281Z,7.57
2023-04-18T07:03:21.222Z,7.97
2023-04-18T07:08:24.169Z,7.40
2023-04-18T07:13:26.865Z,5.53
2023-04-18T07:18:37.366Z,5.03
2023-04-18T07:23:41.354Z,5.27
2023-04-18T07:28:44.243Z,6.47
2023-04-18T07:33:46.907Z,7.37
2023-04-18T07:38:49.855Z,9.02
2023-04-18T07:43:52.617Z,6.90
2023-04-18T07:48:55.318Z,6.67
2023-04-18T07:54:01.413Z,8.35
2023-04-18T07:59:04.168Z,7.57
2023-04-18T08:04:07.088Z,6.35
2023-04-18T08:09:09.967Z,7.38
2023-04-18T08:14:12.707Z,6.73
2023-04-18T08:19:15.707Z,6.35
2023-04-18T08:24:18.811Z,5.70
2023-04-18T08:29:21.781Z,5.60
2023-04-18T08:34:24.817Z,4.40
2023-04-18T08:39:27.563Z,4.70
2023-04-18T08:44:30.937Z,3.00
2023-04-18T08:49:33.936Z,5.40
2023-04-18T08:54:38.723Z,5.53
2023-04-18T08:59:43.805Z,4.55
2023-04-18T09:04:53.843Z,5.13
2023-04-18T09:09:57.937Z,4.47
2023-04-18T09:15:16.004Z,4.90
2023-04-18T09:20:34.945Z,4.95
2023-04-18T09:25:49.137Z,3.83
2023-04-18T09:30:53.399Z,4.47
2023-04-18T09:35:57.417Z,4.38
2023-04-18T09:41:10.886Z,4.63
2023-04-18T09:46:14.534Z,4.10
2023-04-18T09:51:18.595Z,4.00
2023-04-18T09:56:26.465Z,3.40
2023-04-18T10:01:30.020Z,3.67
2023-04-18T10:06:39.893Z,4.30
2023-04-18T10:11:43.195Z,4.20
2023-04-18T10:16:47.527Z,3.67
2023-04-18T10:21:59.812Z,3.93
2023-04-18T10:27:02.970Z,3.50
2023-04-18T10:32:07.395Z,3.40
2023-04-18T10:37:10.250Z,3.33
2023-04-18T10:42:13.266Z,3.45
2023-04-18T10:47:21.272Z,3.23
2023-04-18T10:52:24.309Z,2.88
2023-04-18T10:57:41.684Z,2.83
2023-04-18T11:02:58.145Z,3.42
2023-04-18T11:08:01.059Z,3.00
2023-04-18T11:13:06.884Z,3.27
2023-04-18T11:18:10.299Z,3.30
2023-04-18T11:23:25.787Z,3.00
2023-04-18T11:28:28.970Z,2.47
2023-04-18T11:33:32.333Z,3.38
2023-04-18T11:38:36.158Z,3.40
2023-04-18T11:43:43.357Z,2.65
2023-04-18T11:48:46.963Z,3.23
2023-04-18T11:53:49.865Z,2.70
2023-04-18T11:58:52.577Z,3.15
2023-04-18T12:04:03.379Z,2.90
2023-04-18T12:09:06.705Z,2.75
2023-04-18T12:14:22.755Z,2.53
2023-04-18T12:19:30.435Z,2.30
2023-04-18T12:24:33.427Z,2.80
2023-04-18T12:29:36.188Z,2.60
2023-04-18T12:34:38.919Z,2.33
2023-04-18T12:39:41.688Z,2.20
2023-04-18T12:44:45.834Z,2.13
2023-04-18T12:49:49.650Z,2.60
2023-04-18T12:54:52.996Z,2.33
2023-04-18T12:59:55.799Z,2.63
2023-04-18T13:04:58.800Z,2.73
2023-04-18T13:10:01.716Z,2.70
2023-04-18T13:15:05.795Z,2.50
2023-04-18T13:20:13.190Z,2.70
2023-04-18T13:25:16.834Z,2.33
2023-04-18T13:30:19.706Z,2.10
2023-04-18T13:35:22.489Z,1.95
2023-04-18T13:40:25.475Z,1.33
2023-04-18T13:45:28.245Z,1.60
2023-04-18T13:50:31.004Z,1.85
2023-04-18T13:55:33.813Z,1.73
2023-04-18T14:00:36.568Z,2.20
2023-04-18T14:05:39.483Z,2.30
2023-04-18T14:10:42.324Z,2.10
2023-04-18T14:21:20.952Z,1.90
2023-04-18T14:26:24.167Z,2.75
2023-04-18T14:31:28.524Z,2.50
2023-04-18T14:36:32.046Z,2.33
2023-04-18T14:41:34.721Z,1.98
2023-04-18T14:46:37.534Z,2.20
2023-04-18T14:51:40.320Z,2.08
2023-04-18T14:56:43.046Z,1.92
2023-04-18T15:01:46.013Z,2.20
2023-04-18T15:06:48.714Z,2.03
2023-04-18T15:11:52.471Z,2.47
2023-04-18T15:16:55.324Z,2.20
2023-04-18T15:21:58.680Z,2.28
2023-04-18T15:27:01.704Z,1.90
2023-04-18T15:32:05.355Z,2.10
2023-04-18T15:37:08.480Z,2.30
2023-04-18T15:42:11.296Z,2.20
2023-04-18T15:47:14.867Z,1.98
2023-04-18T15:52:17.738Z,2.10
2023-04-18T15:57:21.295Z,2.42
2023-04-18T16:02:24.224Z,2.33
2023-04-18T16:07:27.206Z,3.25
2023-04-18T16:12:30.232Z,2.67
2023-04-18T16:17:33.068Z,3.50
2023-04-18T16:22:36.282Z,3.50
2023-04-18T16:27:39.078Z,3.17
2023-04-18T16:32:41.820Z,3.60
2023-04-18T16:37:44.602Z,3.80
2023-04-18T16:42:47.599Z,3.60
2023-04-18T16:47:50.286Z,3.65
2023-04-18T16:52:53.101Z,3.50
2023-04-18T16:57:55.880Z,3.92
2023-04-18T17:02:58.750Z,3.80
2023-04-18T17:08:01.599Z,3.97
2023-04-18T17:13:04.920Z,3.88
2023-04-18T17:18:07.754Z,4.30
2023-04-18T17:23:10.794Z,4.00
2023-04-18T17:28:14.228Z,4.10
2023-04-18T17:33:17.052Z,3.70
2023-04-18T17:38:19.914Z,3.80
2023-04-18T17:43:22.633Z,3.80
2023-04-18T17:48:26.128Z,4.10
2023-04-18T17:53:31.484Z,3.80
2023-04-18T17:58:34.818Z,4.40
2023-04-18T18:03:38.240Z,4.57
2023-04-18T18:08:42.903Z,4.60
2023-04-18T18:13:46.969Z,4.20
2023-04-18T18:18:51.315Z,5.50
2023-04-18T18:23:54.284Z,6.57
2023-04-18T18:28:57.049Z,8.05
2023-04-18T18:33:59.801Z,9.37
2023-04-18T18:39:02.531Z,7.63
2023-04-18T18:44:05.422Z,6.00
2023-04-18T18:49:09.241Z,5.83
2023-04-18T18:54:12.361Z,5.63
2023-04-18T18:59:16.112Z,5.70
2023-04-18T19:04:19.079Z,6.00
2023-04-18T19:09:21.849Z,6.60
2023-04-18T19:14:24.958Z,6.60
2023-04-18T19:19:27.574Z,6.65
2023-04-18T19:24:32.149Z,6.90
2023-04-18T19:29:36.636Z,7.13
2023-04-18T19:34:39.421Z,7.47
2023-04-18T19:39:42.211Z,7.00
2023-04-18T19:44:45.159Z,6.93
2023-04-18T19:49:48.166Z,7.53
2023-04-18T19:54:53.271Z,7.53
2023-04-18T19:59:56.111Z,7.00
2023-04-18T20:04:59.047Z,6.87
2023-04-18T20:10:01.877Z,7.82
2023-04-18T20:15:05.962Z,6.60
2023-04-18T20:20:09.556Z,7.28
2023-04-18T20:25:12.226Z,6.45
2023-04-18T20:30:15.712Z,6.47
2023-04-18T20:35:20.139Z,6.70
2023-04-18T20:40:23.083Z,6.63
2023-04-18T20:45:26.022Z,6.00
2023-04-18T20:50:28.789Z,5.47
2023-04-18T20:55:32.091Z,4.97
2023-04-18T21:00:35.019Z,5.65
2023-04-18T21:05:37.834Z,5.30
2023-04-18T21:10:40.835Z,5.22
2023-04-18T21:15:43.533Z,12.95
2023-04-18T21:20:46.285Z,27.37
2023-04-18T21:25:49.093Z,16.60
2023-04-18T21:30:51.876Z,6.23
2023-04-18T21:35:54.598Z,5.43
2023-04-18T21:40:57.243Z,6.65
2023-04-18T21:45:59.919Z,9.73
2023-04-18T21:51:02.748Z,6.10
2023-04-18T21:56:06.360Z,6.90
2023-04-18T22:01:09.496Z,7.63
2023-04-18T22:06:12.196Z,7.07
2023-04-18T22:11:16.300Z,8.33
2023-04-18T22:16:24.805Z,8.57
2023-04-18T22:21:27.797Z,9.43
2023-04-18T22:26:30.701Z,8.65
2023-04-18T22:31:33.478Z,8.73
2023-04-18T22:36:36.244Z,8.23
2023-04-18T22:41:38.863Z,8.93
2023-04-18T22:46:42.435Z,8.87
2023-04-18T22:51:46.703Z,10.10
2023-04-18T22:56:50.776Z,9.75
2023-04-18T23:01:53.839Z,10.17
2023-04-18T23:06:56.825Z,10.40
2023-04-18T23:11:59.569Z,11.23
2023-04-18T23:17:02.863Z,9.30
2023-04-18T23:22:05.847Z,9.82
2023-04-18T23:27:08.542Z,9.83
2023-04-18T23:32:11.127Z,9.90
2023-04-18T23:37:13.810Z,10.30
2023-04-18T23:42:16.433Z,11.07
2023-04-18T23:47:19.268Z,10.95
2023-04-18T23:52:22.126Z,10.63
2023-04-18T23:57:24.733Z,11.55
